Time;durP1;ratioP1;P1;durP2;ratioP2;P2;SDS_P1;SDS_P2;PMS_P1;PMS_P2;Temp;Humidity;BMP_temperature;BMP_pressure;BME280_temperature;BME280_humidity;BME280_pressure;Samples;Min_cycle;Max_cycle;Signal;HPM_P1;HPM_P2
2023/01/30 00:02:17;;;;;;;29.63;25.10;;;3.20;95.60;;;2.19;83.71;100758.97;5031116;28;20465;-69
2023/01/30 00:04:46;;;;;;;29.42;24.33;;;3.30;95.40;;;2.20;83.77;100761.47;5031495;28;20399;-70
2023/01/30 00:07:14;;;;;;;28.20;23.75;;;3.20;95.40;;;2.18;83.76;100738.78;5030768;28;20413;-69
2023/01/30 00:09:42;;;;;;;29.13;24.85;;;3.30;95.40;;;2.16;83.83;100707.19;5030821;28;20506;-69
2023/01/30 00:12:10;;;;;;;30.98;24.80;;;3.20;95.40;;;2.15;83.80;100688.81;5030751;28;20431;-69
2023/01/30 00:14:38;;;;;;;30.75;25.02;;;3.20;95.40;;;2.15;83.47;100692.31;5030446;28;20407;-69
2023/01/30 00:17:06;;;;;;;30.05;24.95;;;3.20;95.40;;;2.14;83.64;100685.31;5030444;28;20418;-69
2023/01/30 00:19:34;;;;;;;29.95;24.00;;;3.20;95.50;;;2.19;83.36;100700.84;5030193;28;20411;-69
2023/01/30 00:22:04;;;;;;;30.10;25.17;;;3.20;95.40;;;2.18;83.55;100694.72;5030064;28;20403;-70
2023/01/30 00:24:32;;;;;;;31.67;25.43;;;3.20;95.40;;;2.20;83.74;100687.53;5030423;28;20403;-70
2023/01/30 00:27:00;;;;;;;30.65;24.55;;;3.20;95.40;;;2.18;83.63;100707.09;5030024;28;20407;-70
2023/01/30 00:29:28;;;;;;;31.80;25.77;;;3.30;95.40;;;2.18;84.02;100715.00;5030033;28;20414;-69
2023/01/30 00:31:56;;;;;;;29.20;24.77;;;3.20;95.50;;;2.18;83.82;100704.44;5030367;28;20430;-70
2023/01/30 00:34:25;;;;;;;32.07;26.23;;;3.20;95.40;;;2.17;83.43;100700.94;5030073;28;20492;-70
2023/01/30 00:36:53;;;;;;;31.98;25.25;;;3.20;95.50;;;2.17;83.67;100708.88;5029948;28;20411;-70
2023/01/30 00:39:36;;;;;;;30.45;25.08;;;3.20;95.50;;;2.18;83.92;100709.72;5029920;28;20403;-70
2023/01/30 00:47:35;;;;;;;31.80;25.42;;;3.20;95.60;;;2.22;83.92;100700.63;5029645;28;20403;-70
2023/01/30 00:50:04;;;;;;;31.38;25.85;;;3.30;95.50;;;2.22;83.97;100674.22;5029592;28;20918;-70
2023/01/30 00:52:32;;;;;;;34.20;26.75;;;3.20;95.60;;;2.23;84.62;100666.16;5029641;28;20792;-70
2023/01/30 00:55:01;;;;;;;31.35;26.05;;;3.30;95.80;;;2.25;84.78;100664.28;5029913;28;20470;-70
2023/01/30 00:57:29;;;;;;;33.53;27.10;;;3.30;96.00;;;2.28;84.30;100666.69;5029295;28;20903;-70
2023/01/30 00:59:57;;;;;;;35.88;28.48;;;3.30;96.00;;;2.25;85.04;100664.28;5029866;28;20411;-69
2023/01/30 01:02:25;;;;;;;34.67;26.90;;;3.30;96.20;;;2.32;84.90;100660.25;5029312;28;20884;-70
2023/01/30 01:04:53;;;;;;;35.20;27.13;;;3.30;96.30;;;2.32;85.33;100647.03;5013183;28;20425;-70
2023/01/30 01:07:21;;;;;;;35.57;27.83;;;3.40;96.30;;;2.37;85.25;100636.97;5009346;28;21008;-70
2023/01/30 01:09:50;;;;;;;34.00;27.25;;;3.40;96.50;;;2.37;85.85;100649.34;5009804;28;20443;-70
2023/01/30 01:12:20;;;;;;;34.67;28.25;;;3.40;96.70;;;2.41;85.98;100643.72;5009673;28;20455;-68
2023/01/30 01:14:48;;;;;;;36.15;28.92;;;3.40;96.80;;;2.40;86.42;100633.25;5010019;28;20877;-70
2023/01/30 01:17:16;;;;;;;38.77;29.40;;;3.40;97.00;;;2.41;86.85;100635.81;5009283;28;20882;-69
2023/01/30 01:19:44;;;;;;;37.17;29.20;;;3.50;97.20;;;2.43;86.54;100625.94;5023513;28;20407;-69
2023/01/30 01:22:12;;;;;;;37.78;29.83;;;3.40;97.30;;;2.41;87.23;100622.59;5028787;28;21068;-70
2023/01/30 01:24:40;;;;;;;39.15;29.55;;;3.40;97.50;;;2.45;86.87;100612.66;5029502;28;20418;-69
2023/01/30 01:27:09;;;;;;;38.28;29.65;;;3.50;97.40;;;2.45;86.65;100595.00;5029003;28;20415;-70
2023/01/30 01:29:38;;;;;;;39.97;31.20;;;3.50;97.40;;;2.44;86.50;100588.03;5029176;28;20418;-69
2023/01/30 01:32:06;;;;;;;38.27;31.37;;;3.50;97.30;;;2.44;86.94;100582.72;5028796;28;20431;-69
2023/01/30 01:34:35;;;;;;;40.10;31.65;;;3.50;97.50;;;2.46;87.22;100583.47;5028882;28;20415;-69
2023/01/30 01:37:03;;;;;;;39.13;30.50;;;3.50;97.60;;;2.48;87.13;100573.63;5028513;28;20911;-69
2023/01/30 01:42:13;;;;;;;42.38;32.15;;;3.50;97.90;;;2.47;88.01;100542.88;5027953;28;20461;-69
2023/01/30 01:45:15;;;;;;;39.95;31.90;;;3.50;98.00;;;2.50;87.98;100532.06;5028541;28;20403;-69
2023/01/30 01:47:57;;;;;;;44.90;33.83;;;3.50;98.00;;;2.45;88.39;100513.09;5028417;28;20902;-69
2023/01/30 01:50:38;;;;;;;40.72;32.05;;;3.50;98.30;;;2.46;88.65;100519.22;5028503;28;20407;-69
2023/01/30 01:53:10;;;;;;;41.10;32.33;;;3.50;98.30;;;2.47;88.14;100510.31;5028376;28;20434;-70
2023/01/30 01:55:41;;;;;;;41.42;32.38;;;3.50;98.30;;;2.46;88.57;100498.94;5028599;28;20407;-70
2023/01/30 01:58:13;;;;;;;40.20;32.30;;;3.50;98.40;;;2.47;88.58;100505.88;5028536;28;20418;-69
2023/01/30 02:00:43;;;;;;;37.97;30.60;;;3.50;98.50;;;2.50;88.60;100500.34;5028338;28;21130;-69
2023/01/30 02:03:17;;;;;;;38.28;30.70;;;3.60;98.40;;;2.58;87.85;100504.22;5028643;28;20399;-69
2023/01/30 02:05:53;;;;;;;36.50;29.42;;;3.60;98.20;;;2.53;88.11;100505.41;5028156;28;20957;-69
2023/01/30 02:08:27;;;;;;;36.33;28.90;;;3.60;98.20;;;2.58;87.93;100485.72;5028706;28;20409;-70
2023/01/30 02:11:03;;;;;;;38.03;28.70;;;3.60;98.20;;;2.59;87.96;100500.63;5028189;28;20412;-69
2023/01/30 02:13:32;;;;;;;34.25;27.45;;;3.60;98.20;;;2.64;88.28;100490.56;5028641;28;20457;-69
2023/01/30 02:16:04;;;;;;;32.78;27.27;;;3.60;98.10;;;2.65;87.82;100489.59;5028088;28;20407;-69
2023/01/30 02:18:39;;;;;;;34.83;27.80;;;3.70;98.10;;;2.61;88.21;100493.44;5028466;28;20945;-69
2023/01/30 02:21:43;;;;;;;32.75;26.17;;;3.60;98.20;;;2.70;87.33;100483.03;5028405;28;20406;-69
2023/01/30 02:24:57;;;;;;;31.10;24.90;;;3.70;98.10;;;2.72;87.88;100477.59;5028334;28;21176;-69
2023/01/30 02:28:15;;;;;;;29.60;24.38;;;3.70;98.10;;;2.75;87.67;100482.66;5028472;28;20407;-69
2023/01/30 02:31:07;;;;;;;29.15;24.05;;;3.80;98.10;;;2.81;87.90;100482.22;5016416;28;20406;-68
2023/01/30 02:33:51;;;;;;;28.60;23.70;;;3.80;98.00;;;2.82;87.71;100468.00;5028392;28;20407;-68
2023/01/30 02:36:34;;;;;;;28.58;23.60;;;3.90;98.00;;;2.86;88.06;100461.53;5028169;28;20410;-70
2023/01/30 02:39:13;;;;;;;30.50;24.05;;;3.90;98.00;;;2.87;87.51;100450.84;5028094;28;20883;-70
2023/01/30 02:41:53;;;;;;;28.67;24.05;;;3.90;97.90;;;2.91;87.66;100454.09;5028259;28;20403;-70
2023/01/30 02:44:30;;;;;;;29.33;24.02;;;4.00;98.00;;;2.95;87.62;100450.22;5027998;28;20411;-70
2023/01/30 02:47:07;;;;;;;29.40;24.63;;;4.00;98.00;;;2.98;87.39;100442.91;5027527;28;20407;-69
2023/01/30 02:49:41;;;;;;;30.08;25.30;;;4.00;98.00;;;2.96;88.10;100433.41;5027984;28;20410;-69
2023/01/30 02:52:13;;;;;;;30.77;25.43;;;4.00;98.00;;;2.97;88.19;100424.53;5028028;28;20423;-70
2023/01/30 02:54:44;;;;;;;32.30;26.42;;;4.00;98.20;;;3.03;87.58;100429.34;5030770;28;20433;-70
2023/01/30 02:57:21;;;;;;;31.63;26.25;;;4.10;98.00;;;3.03;87.66;100424.88;5031392;28;20410;-70
2023/01/30 02:59:54;;;;;;;31.63;26.40;;;4.10;98.10;;;3.11;87.25;100423.44;5031983;28;20395;-70
2023/01/30 03:03:09;;;;;;;32.60;26.57;;;4.10;98.10;;;3.08;87.58;100416.59;5031856;28;20434;-69
2023/01/30 03:06:21;;;;;;;31.83;26.85;;;4.10;98.10;;;3.17;87.54;100396.50;5031395;28;20631;-69
2023/01/30 03:09:08;;;;;;;33.00;27.65;;;4.20;98.00;;;3.15;87.29;100388.69;5031727;28;20433;-70
2023/01/30 03:11:49;;;;;;;32.70;26.77;;;4.20;98.00;;;3.26;87.38;100393.97;5031427;28;20410;-69
2023/01/30 03:14:26;;;;;;;33.08;27.50;;;4.20;98.00;;;3.25;88.22;100375.59;5031671;28;20430;-70
2023/01/30 03:16:59;;;;;;;33.00;27.70;;;4.30;98.00;;;3.27;87.33;100390.38;5031409;28;20433;-70
2023/01/30 03:19:29;;;;;;;33.70;28.13;;;4.30;98.00;;;3.34;87.15;100370.41;5031046;28;20418;-69
2023/01/30 03:21:57;;;;;;;32.72;27.15;;;4.30;98.30;;;3.30;87.45;100368.94;5031148;28;20402;-69
2023/01/30 03:24:26;;;;;;;34.70;28.08;;;4.30;98.00;;;3.36;87.63;100367.59;5031551;28;20473;-69
2023/01/30 03:27:02;;;;;;;35.00;29.25;;;4.40;98.10;;;3.35;88.11;100372.09;5031087;28;20407;-69
2023/01/30 03:29:30;;;;;;;38.70;30.30;;;4.30;98.20;;;3.38;88.25;100361.25;5031387;28;20414;-69
2023/01/30 03:31:58;;;;;;;37.92;30.80;;;4.40;98.40;;;3.34;88.62;100359.81;5029406;28;20441;-69
2023/01/30 03:34:27;;;;;;;41.15;32.67;;;4.40;98.70;;;3.29;90.03;100351.38;5031290;28;20407;-69
2023/01/30 03:36:56;;;;;;;43.25;33.53;;;4.30;99.10;;;3.28;90.51;100368.25;5030960;28;20414;-69
2023/01/30 03:39:25;;;;;;;41.58;33.42;;;4.30;99.60;;;3.31;90.56;100349.47;5031046;28;20961;-68
2023/01/30 03:41:54;;;;;;;44.28;34.10;;;4.30;99.90;;;3.29;90.85;100351.38;5030883;28;20395;-70
2023/01/30 03:44:22;;;;;;;44.30;34.35;;;4.40;99.90;;;3.32;91.11;100351.13;5031040;28;20407;-70
2023/01/30 03:46:50;;;;;;;46.17;36.15;;;4.30;99.90;;;3.33;91.50;100342.25;5031116;28;20419;-70
2023/01/30 03:49:19;;;;;;;47.15;34.88;;;4.30;99.90;;;3.35;91.26;100361.50;5031605;28;20406;-70
2023/01/30 03:51:49;;;;;;;42.45;33.05;;;4.40;99.90;;;3.35;91.97;100345.63;5030277;28;20763;-71
2023/01/30 03:54:17;;;;;;;43.07;34.17;;;4.30;99.90;;;3.34;91.47;100341.28;5031247;28;20887;-70
2023/01/30 03:56:45;;;;;;;46.60;35.13;;;4.30;99.90;;;3.35;91.85;100335.03;5030794;28;20411;-70
2023/01/30 03:59:13;;;;;;;42.53;33.72;;;4.40;99.90;;;3.33;91.74;100321.06;5030667;28;20411;-71
2023/01/30 04:01:41;;;;;;;44.05;33.28;;;4.30;99.90;;;3.36;92.15;100318.19;5030903;28;20441;-71
2023/01/30 04:04:09;;;;;;;43.40;33.72;;;4.40;99.90;;;3.37;91.67;100319.03;5030390;28;20764;-71
2023/01/30 04:06:37;;;;;;;44.38;33.45;;;4.40;99.90;;;3.38;92.79;100321.56;5030644;28;20403;-71
2023/01/30 04:09:07;;;;;;;45.45;34.13;;;4.40;99.90;;;3.39;92.17;100319.75;5030757;28;20410;-71
2023/01/30 04:11:35;;;;;;;44.55;33.70;;;4.40;99.90;;;3.39;92.02;100304.69;5030378;28;20465;-71
2023/01/30 04:14:03;;;;;;;41.00;31.98;;;4.40;99.90;;;3.43;92.13;100306.13;5030210;28;20487;-71
2023/01/30 04:16:31;;;;;;;40.67;31.27;;;4.40;99.90;;;3.44;92.33;100297.25;5030076;28;20915;-70
2023/01/30 04:18:59;;;;;;;40.17;31.77;;;4.40;99.90;;;3.46;92.20;100295.28;5030254;28;20821;-71
2023/01/30 04:21:27;;;;;;;40.55;31.08;;;4.50;99.90;;;3.48;92.58;100305.78;5030696;28;20406;-72
2023/01/30 04:23:55;;;;;;;38.78;30.95;;;4.50;99.90;;;3.53;92.09;100301.75;5030333;28;20775;-71
2023/01/30 04:26:24;;;;;;;39.30;31.67;;;4.50;99.90;;;3.52;92.70;100300.09;5030398;28;20410;-70
2023/01/30 04:28:53;;;;;;;39.00;31.17;;;4.50;99.90;;;3.54;91.99;100292.88;5028333;28;20429;-71
2023/01/30 04:31:21;;;;;;;40.72;31.08;;;4.50;99.90;;;3.55;92.28;100276.03;5029757;28;20415;-71
2023/01/30 04:33:49;;;;;;;38.17;29.92;;;4.50;99.90;;;3.61;92.23;100289.72;5029836;28;20427;-70
2023/01/30 04:36:17;;;;;;;37.33;30.25;;;4.60;99.90;;;3.61;92.31;100273.81;5030218;28;20411;-71
2023/01/30 04:38:45;;;;;;;35.00;27.65;;;4.60;99.90;;;3.65;92.20;100277.91;5029891;28;20422;-70
2023/01/30 04:41:13;;;;;;;31.77;25.75;;;4.60;99.90;;;3.71;92.49;100282.69;5030421;28;20418;-70
2023/01/30 04:43:43;;;;;;;31.13;26.25;;;4.70;99.90;;;3.67;91.96;100289.19;5029938;28;20400;-71
2023/01/30 04:46:11;;;;;;;31.65;25.83;;;4.70;99.90;;;3.66;92.23;100283.09;5029217;28;20815;-71
2023/01/30 04:48:39;;;;;;;29.85;24.25;;;4.60;99.90;;;3.70;92.25;100281.03;5030024;28;21076;-71
2023/01/30 04:51:07;;;;;;;27.57;22.80;;;4.70;99.90;;;3.76;92.32;100280.50;5029605;28;20506;-70
2023/01/30 04:53:35;;;;;;;27.08;22.58;;;4.70;99.90;;;3.75;91.68;100282.31;5030224;28;20453;-70
2023/01/30 04:56:04;;;;;;;25.17;20.67;;;4.70;99.90;;;3.79;91.64;100264.34;5029812;28;20431;-70
2023/01/30 04:58:32;;;;;;;25.13;20.42;;;4.80;99.90;;;3.78;92.18;100257.38;5030138;28;20472;-71
2023/01/30 05:01:16;;;;;;;23.80;20.02;;;4.70;99.90;;;3.77;92.03;100268.94;5029929;28;20899;-71
2023/01/30 05:03:44;;;;;;;22.30;18.70;;;4.70;99.90;;;3.77;92.74;100259.19;5029877;28;20403;-71
2023/01/30 05:06:12;;;;;;;22.45;18.88;;;4.80;99.90;;;3.79;92.24;100253.78;5029593;28;20887;-71
2023/01/30 05:08:40;;;;;;;21.98;18.83;;;4.80;99.90;;;3.80;92.12;100255.47;5029596;28;20407;-71
2023/01/30 05:11:08;;;;;;;22.10;18.95;;;4.80;99.90;;;3.88;92.54;100252.97;5029453;28;20887;-71
2023/01/30 05:13:36;;;;;;;22.15;18.65;;;4.80;99.90;;;3.88;92.24;100235.28;5029294;28;20422;-70
2023/01/30 05:16:05;;;;;;;20.42;18.17;;;4.80;99.90;;;3.89;92.48;100234.31;5028194;28;20745;-70
2023/01/30 05:18:34;;;;;;;22.30;19.07;;;4.80;99.90;;;3.87;92.70;100240.72;5029932;28;20411;-71
2023/01/30 05:21:08;;;;;;;21.00;18.35;;;4.90;99.90;;;3.88;92.09;100229.16;5029513;28;20403;-70
2023/01/30 05:23:36;;;;;;;20.60;17.93;;;4.90;99.90;;;3.90;92.97;100238.66;5029473;28;20457;-70
2023/01/30 05:26:05;;;;;;;20.65;18.25;;;4.90;99.90;;;3.93;92.29;100243.69;5028988;28;20410;-71
2023/01/30 05:28:33;;;;;;;20.67;18.48;;;4.90;99.90;;;3.93;92.47;100224.31;5029480;28;20414;-70
2023/01/30 05:31:02;;;;;;;21.55;18.27;;;4.90;99.90;;;3.98;92.51;100222.94;5029335;28;20410;-70
2023/01/30 05:33:30;;;;;;;19.95;17.75;;;5.00;99.90;;;4.00;92.54;100223.66;5029133;28;20427;-70
2023/01/30 05:36:00;;;;;;;20.33;18.13;;;5.00;99.90;;;4.01;92.57;100232.44;5029266;28;20406;-70
2023/01/30 05:38:28;;;;;;;20.07;17.97;;;5.00;99.90;;;4.04;93.08;100222.41;5028558;28;20490;-70
2023/01/30 05:41:00;;;;;;;19.35;17.30;;;5.00;99.90;;;4.06;92.11;100224.94;5029093;28;20406;-71
2023/01/30 05:43:30;;;;;;;18.85;16.88;;;5.00;99.90;;;4.09;92.45;100227.31;5023677;28;20504;-71
2023/01/30 05:46:00;;;;;;;17.98;16.08;;;5.00;99.90;;;4.16;91.95;100225.84;5026760;28;20931;-70
2023/01/30 05:48:29;;;;;;;18.98;16.98;;;5.10;99.90;;;4.08;92.27;100236.22;5029148;28;20407;-70
2023/01/30 05:51:00;;;;;;;18.10;15.80;;;5.10;99.90;;;4.15;93.25;100232.09;5028335;28;20407;-71
2023/01/30 05:53:33;;;;;;;17.52;14.98;;;5.10;99.90;;;4.17;92.68;100240.75;5029045;28;20415;-71
2023/01/30 05:56:05;;;;;;;16.85;15.07;;;5.20;99.90;;;4.16;92.37;100238.22;5028571;28;20464;-71
2023/01/30 05:58:33;;;;;;;14.90;13.35;;;5.10;99.90;;;4.24;91.58;100233.97;5028965;28;20403;-71
2023/01/30 06:01:03;;;;;;;13.68;12.27;;;5.20;99.90;;;4.24;91.60;100249.88;5028499;28;20414;-71
2023/01/30 06:03:32;;;;;;;13.55;12.05;;;5.30;99.90;;;4.28;91.60;100214.16;5028721;28;20634;-71
2023/01/30 06:06:04;;;;;;;12.75;11.35;;;5.30;99.90;;;4.30;91.74;100214.88;5028472;28;20486;-71
2023/01/30 06:08:33;;;;;;;12.70;11.40;;;5.20;99.90;;;4.30;91.55;100203.44;5028718;28;20413;-71
2023/01/30 06:11:01;;;;;;;12.75;11.45;;;5.30;99.90;;;4.36;91.17;100200.25;5028614;28;20403;-71
2023/01/30 06:13:29;;;;;;;12.02;10.82;;;5.30;99.90;;;4.37;91.43;100202.78;5028109;28;20419;-71
2023/01/30 06:15:58;;;;;;;11.23;9.98;;;5.30;99.90;;;4.35;91.04;100212.66;5027914;28;20411;-71
2023/01/30 06:18:26;;;;;;;10.85;9.65;;;5.40;99.90;;;4.36;91.11;100210.84;5028490;28;20493;-71
2023/01/30 06:20:55;;;;;;;11.48;9.68;;;5.30;99.90;;;4.39;90.68;100214.06;5028040;28;20410;-71
2023/01/30 06:23:24;;;;;;;12.48;10.70;;;5.30;99.90;;;4.34;90.64;100210.16;5028127;28;20404;-71
2023/01/30 06:25:54;;;;;;;12.73;11.30;;;5.30;99.90;;;4.31;90.74;100213.91;5027840;28;20457;-71
2023/01/30 06:28:24;;;;;;;13.15;10.35;;;5.30;99.90;;;4.35;90.18;100212.66;5028063;28;20399;-71
2023/01/30 06:30:53;;;;;;;12.40;9.80;;;5.40;99.90;;;4.35;90.63;100220.59;5028335;28;20403;-71
2023/01/30 06:33:21;;;;;;;11.93;10.00;;;5.30;99.90;;;4.32;90.51;100220.03;5028479;28;20567;-71
2023/01/30 06:35:51;;;;;;;12.48;9.73;;;5.30;99.90;;;4.33;90.32;100233.16;5028255;28;20403;-72
2023/01/30 06:38:20;;;;;;;13.93;9.80;;;5.30;99.90;;;4.35;90.44;100233.84;5028194;28;20498;-71
2023/01/30 06:40:50;;;;;;;11.90;9.15;;;5.30;99.90;;;4.38;89.96;100238.91;5028336;28;20411;-72
2023/01/30 06:43:18;;;;;;;12.65;9.20;;;5.30;99.90;;;4.39;90.15;100252.97;5027806;28;20414;-71
2023/01/30 06:45:46;;;;;;;12.27;8.35;;;5.30;99.80;;;4.44;89.29;100250.78;5028359;28;20407;-71
2023/01/30 06:48:15;;;;;;;10.93;8.73;;;5.40;99.60;;;4.48;89.46;100254.84;5028077;28;20456;-71
2023/01/30 06:50:43;;;;;;;10.48;8.13;;;5.40;99.30;;;4.55;88.11;100262.13;5027818;28;20413;-71
2023/01/30 06:53:11;;;;;;;10.63;8.70;;;5.50;98.90;;;4.51;89.00;100258.06;5028252;28;20626;-70
2023/01/30 06:55:39;;;;;;;11.27;8.13;;;5.50;98.90;;;4.55;87.76;100251.50;5027760;28;20434;-71
2023/01/30 06:58:14;;;;;;;12.02;8.65;;;5.50;98.70;;;4.57;87.71;100257.53;5028040;28;20429;-71
2023/01/30 07:00:43;;;;;;;14.23;8.30;;;5.50;98.50;;;4.48;87.65;100268.94;5028079;28;20410;-71
2023/01/30 07:03:13;;;;;;;13.65;8.48;;;5.40;98.60;;;4.49;88.06;100275.91;5028260;28;20399;-71
2023/01/30 07:05:43;;;;;;;16.05;9.02;;;5.50;98.60;;;4.51;87.70;100281.09;5027191;28;20407;-70
2023/01/30 07:08:13;;;;;;;12.75;8.35;;;5.50;98.70;;;4.56;88.00;100270.91;5028192;28;20410;-70
2023/01/30 07:10:43;;;;;;;13.77;9.38;;;5.50;98.40;;;4.58;87.60;100266.34;5027683;28;20654;-71
2023/01/30 07:13:13;;;;;;;13.75;8.70;;;5.50;98.40;;;4.52;87.74;100267.69;5027906;28;20414;-70
2023/01/30 07:15:41;;;;;;;12.25;7.80;;;5.50;98.50;;;4.55;87.35;100278.03;5027475;28;20419;-71
2023/01/30 07:18:09;;;;;;;15.57;7.95;;;5.50;98.30;;;4.53;87.28;100272.03;5027351;28;20411;-70
2023/01/30 07:20:37;;;;;;;15.80;7.20;;;5.50;98.00;;;4.53;86.47;100277.31;5027911;28;20410;-70
2023/01/30 07:23:05;;;;;;;13.63;6.93;;;5.50;97.50;;;4.48;86.32;100271.59;5027301;28;20878;-71
2023/01/30 07:25:33;;;;;;;14.68;5.97;;;5.50;97.40;;;4.58;85.39;100269.84;5027244;28;20929;-70
2023/01/30 07:28:02;;;;;;;16.25;6.80;;;5.50;97.10;;;4.50;85.48;100274.94;5027394;28;20437;-71
2023/01/30 07:30:35;;;;;;;14.52;7.13;;;5.50;97.10;;;4.51;85.08;100263.38;5027441;28;20419;-71
2023/01/30 07:33:05;;;;;;;17.67;5.95;;;5.50;96.90;;;4.50;84.87;100277.59;5027537;28;20892;-71
2023/01/30 07:35:36;;;;;;;17.75;5.80;;;5.50;96.60;;;4.48;84.21;100273.41;5026673;28;20427;-71
2023/01/30 07:38:05;;;;;;;16.23;6.20;;;5.50;96.10;;;4.43;84.90;100257.91;5026649;28;20407;-71
2023/01/30 07:40:34;;;;;;;15.55;5.00;;;5.40;96.30;;;4.46;82.16;100249.66;5028605;28;20416;-71
2023/01/30 07:43:05;;;;;;;15.13;4.80;;;5.40;95.40;;;4.48;81.93;100258.34;5030262;28;20411;-72
2023/01/30 07:45:40;;;;;;;17.88;5.15;;;5.40;94.90;;;4.46;82.91;100244.38;5030901;28;20406;-72
2023/01/30 07:48:10;;;;;;;17.88;5.20;;;5.40;95.60;;;4.43;82.46;100257.06;5029275;28;20414;-72
2023/01/30 07:50:39;;;;;;;17.23;5.80;;;5.40;95.20;;;4.47;82.41;100254.00;5029197;28;20887;-72
2023/01/30 07:53:10;;;;;;;18.50;5.77;;;5.50;95.10;;;4.42;83.13;100264.16;5030158;28;20415;-72
2023/01/30 07:55:39;;;;;;;22.65;7.63;;;5.40;95.60;;;4.40;83.93;100262.63;5030077;28;20894;-72
2023/01/30 07:58:07;;;;;;;25.20;7.35;;;5.40;95.80;;;4.48;83.15;100268.94;5030484;28;20411;-72
2023/01/30 08:00:36;;;;;;;28.13;7.40;;;5.50;95.70;;;4.51;83.30;100252.78;5029835;28;20422;-72
2023/01/30 08:03:04;;;;;;;17.40;6.43;;;5.50;95.70;;;4.54;83.13;100278.16;5029945;28;20450;-70
2023/01/30 08:05:32;;;;;;;18.63;5.78;;;5.50;95.80;;;4.53;82.49;100277.31;5030016;28;20895;-70
2023/01/30 08:08:00;;;;;;;20.42;5.10;;;5.50;95.20;;;4.55;82.07;100264.75;5030552;28;20403;-70
2023/01/30 08:10:28;;;;;;;17.83;5.15;;;5.50;94.60;;;4.56;81.94;100279.72;5030372;28;20403;-70
2023/01/30 08:12:56;;;;;;;17.80;5.00;;;5.50;94.60;;;4.59;81.41;100279.44;5030535;28;20942;-72
2023/01/30 08:15:25;;;;;;;17.08;4.90;;;5.60;94.40;;;4.63;80.45;100289.78;5030486;28;20419;-70
2023/01/30 08:17:56;;;;;;;18.47;4.43;;;5.50;94.10;;;4.66;80.38;100297.50;5029918;28;20406;-70
2023/01/30 08:20:26;;;;;;;15.18;4.40;;;5.60;93.80;;;4.68;80.44;100292.88;5030329;28;20407;-70
2023/01/30 08:22:55;;;;;;;22.48;5.22;;;5.70;93.70;;;4.70;80.13;100293.56;5029956;28;20457;-70
2023/01/30 08:25:24;;;;;;;18.88;5.22;;;5.70;93.70;;;4.75;79.46;100297.53;5030489;28;20412;-70
2023/01/30 08:27:52;;;;;;;16.85;4.78;;;5.70;93.20;;;4.74;80.20;100289.69;5030311;28;20399;-70
2023/01/30 08:30:22;;;;;;;17.75;4.53;;;5.70;93.30;;;4.77;79.46;100300.03;5030367;28;20407;-70
2023/01/30 08:32:50;;;;;;;15.67;5.10;;;5.70;93.00;;;4.76;79.31;100314.28;5030458;28;20491;-70
2023/01/30 08:35:20;;;;;;;15.30;4.70;;;5.70;93.30;;;4.77;79.98;100302.69;5029960;28;20418;-71
2023/01/30 08:37:48;;;;;;;15.20;4.73;;;5.70;93.30;;;4.77;79.95;100295.56;5030207;28;20414;-70
2023/01/30 08:40:16;;;;;;;16.90;4.40;;;5.70;93.30;;;4.81;79.53;100298.78;5029700;28;21030;-70
2023/01/30 08:42:45;;;;;;;16.63;4.60;;;5.70;93.10;;;4.82;78.99;100308.44;5029755;28;20525;-70
2023/01/30 08:45:14;;;;;;;21.23;5.78;;;5.80;92.80;;;4.77;78.59;100294.72;5030218;28;20422;-70
2023/01/30 08:47:42;;;;;;;19.50;5.07;;;5.70;92.90;;;4.83;78.91;100294.22;5029544;28;20409;-70
2023/01/30 08:50:11;;;;;;;20.20;5.10;;;5.80;92.80;;;4.85;78.79;100313.47;5029962;28;20403;-71
2023/01/30 08:52:40;;;;;;;20.77;5.07;;;5.80;92.70;;;4.95;77.41;100303.72;5028532;28;20784;-71
2023/01/30 08:55:09;;;;;;;16.73;4.70;;;5.90;92.10;;;5.03;78.14;100303.91;5029754;28;20419;-70
2023/01/30 08:57:37;;;;;;;23.20;5.38;;;6.00;92.30;;;4.99;78.74;100313.09;5029295;28;20798;-70
2023/01/30 09:00:07;;;;;;;18.07;4.90;;;6.00;92.50;;;5.03;77.82;100306.56;5029921;28;20510;-70
2023/01/30 09:02:35;;;;;;;19.73;4.72;;;6.00;92.00;;;5.03;78.25;100302.06;5029675;28;20482;-71
2023/01/30 09:05:05;;;;;;;18.17;5.03;;;6.00;92.10;;;5.06;77.33;100319.53;5029513;28;20400;-70
2023/01/30 09:07:34;;;;;;;19.60;4.78;;;6.00;91.90;;;5.01;78.38;100304.03;5029330;28;20414;-71
2023/01/30 09:10:04;;;;;;;19.80;4.72;;;6.00;92.30;;;4.96;78.54;100297.47;5029491;28;20600;-70
2023/01/30 09:12:32;;;;;;;19.08;4.85;;;5.90;92.40;;;4.94;79.17;100305.53;5029372;28;20403;-70
2023/01/30 09:15:00;;;;;;;17.55;4.97;;;5.90;92.70;;;4.95;78.44;100296.59;5029134;28;20407;-71
2023/01/30 09:17:28;;;;;;;19.83;5.13;;;5.90;92.50;;;5.01;78.10;100306.69;5029604;28;20403;-70
2023/01/30 09:19:57;;;;;;;17.23;4.90;;;6.00;92.20;;;5.07;78.26;100302.63;5029222;28;20900;-70
2023/01/30 09:22:25;;;;;;;16.92;5.00;;;6.00;92.30;;;5.07;77.87;100295.50;5028689;28;20411;-70
2023/01/30 09:24:57;;;;;;;18.92;4.85;;;6.00;92.00;;;5.07;77.59;100297.31;5029212;28;20407;-70
2023/01/30 09:27:27;;;;;;;18.75;4.65;;;6.00;92.00;;;5.09;77.53;100303.34;5028883;28;20414;-70
2023/01/30 09:29:55;;;;;;;20.33;4.80;;;6.00;91.90;;;5.15;77.66;100304.59;5029266;28;20402;-70
2023/01/30 09:32:23;;;;;;;18.67;4.75;;;6.10;91.90;;;5.15;78.13;100304.59;5028840;28;20465;-70
2023/01/30 09:34:51;;;;;;;18.75;5.07;;;6.10;92.10;;;5.16;77.19;100301.00;5029320;28;20426;-70
2023/01/30 09:37:19;;;;;;;23.03;4.90;;;6.10;91.80;;;5.18;77.47;100302.53;5029058;28;20406;-70
2023/01/30 09:39:47;;;;;;;20.92;5.53;;;6.10;92.00;;;5.22;77.05;100306.59;5028749;28;20414;-70
2023/01/30 09:42:41;;;;;;;19.10;5.60;;;6.20;91.70;;;5.23;77.17;100312.75;5029361;28;20407;-70
2023/01/30 09:45:37;;;;;;;21.55;5.53;;;6.20;91.70;;;5.24;76.78;100296.66;5028930;28;20403;-70
2023/01/30 09:48:17;;;;;;;18.85;4.97;;;6.20;91.50;;;5.27;76.78;100307.03;5029089;28;20399;-70
2023/01/30 09:51:23;;;;;;;18.00;4.70;;;6.20;91.30;;;5.27;77.32;100304.38;5028759;28;20399;-70
2023/01/30 09:54:20;;;;;;;20.20;4.80;;;6.20;91.60;;;5.28;76.47;100311.34;5029127;28;20795;-70
2023/01/30 09:56:58;;;;;;;18.98;4.75;;;6.20;91.20;;;5.27;76.17;100299.06;5028546;28;20422;-70
2023/01/30 09:59:37;;;;;;;20.23;4.97;;;6.20;90.90;;;5.32;75.91;100304.78;5028630;28;20398;-70
2023/01/30 10:02:33;;;;;;;23.20;5.30;;;6.30;90.90;;;5.32;75.08;100310.09;5028566;28;20407;-70
2023/01/30 10:05:03;;;;;;;18.77;4.88;;;6.30;90.40;;;5.34;75.05;100280.78;5029157;28;20407;-69
2023/01/30 10:07:49;;;;;;;18.02;5.10;;;6.30;90.20;;;5.38;74.99;100292.75;5028249;28;20828;-70
2023/01/30 10:10:29;;;;;;;20.97;5.13;;;6.30;90.20;;;5.40;74.47;100283.72;5028675;28;20941;-68
2023/01/30 10:13:11;;;;;;;18.73;4.93;;;6.40;90.10;;;5.52;73.81;100295.88;5028792;28;20407;-70
2023/01/30 10:15:56;;;;;;;22.92;5.00;;;6.40;89.70;;;5.55;73.25;100276.16;5027818;28;20891;-70
2023/01/30 10:19:00;;;;;;;17.08;5.10;;;6.40;88.80;;;5.52;74.10;100297.69;5028501;28;20407;-70
2023/01/30 10:21:46;;;;;;;21.80;5.47;;;6.50;90.00;;;5.56;73.72;100291.13;5028154;28;20510;-70
2023/01/30 10:24:48;;;;;;;18.75;5.10;;;6.50;88.90;;;5.48;73.33;100281.19;5028350;28;20406;-69
2023/01/30 10:27:17;;;;;;;18.88;4.93;;;6.40;88.00;;;5.48;73.73;100285.69;5027653;28;20902;-70
2023/01/30 10:29:52;;;;;;;21.08;5.32;;;6.40;88.60;;;5.57;73.54;100284.84;5028092;28;20413;-70
2023/01/30 10:32:30;;;;;;;22.88;5.43;;;6.50;88.70;;;5.58;73.47;100278.56;5028062;28;20720;-70
2023/01/30 10:35:06;;;;;;;18.35;5.13;;;6.50;88.50;;;5.65;72.84;100297.41;5028501;28;20400;-70
2023/01/30 10:37:46;;;;;;;19.10;4.80;;;6.60;87.70;;;5.79;73.04;100281.06;5027822;28;20423;-70
2023/01/30 10:40:25;;;;;;;22.30;4.95;;;6.70;87.80;;;5.89;71.76;100282.75;5028320;28;20403;-70
2023/01/30 10:43:03;;;;;;;19.95;4.93;;;6.80;86.30;;;5.91;72.84;100282.63;5027708;28;20418;-70
2023/01/30 10:45:44;;;;;;;17.77;4.30;;;6.80;86.60;;;5.89;72.10;100274.78;5027553;28;20899;-70